createdAt,value
2018-08-10T00:00:30.079Z,67.92
2018-08-10T00:02:34.972Z,68.26
2018-08-10T00:04:39.859Z,67.49
2018-08-10T00:06:44.891Z,67.00
2018-08-10T00:08:49.872Z,67.53
2018-08-10T00:10:54.969Z,65.21
2018-08-10T00:13:00.022Z,65.72
2018-08-10T00:15:05.619Z,65.69
2018-08-10T00:17:10.516Z,65.43
2018-08-10T00:19:15.291Z,65.24
2018-08-10T00:21:20.084Z,64.57
2018-08-10T00:23:25.094Z,65.20
2018-08-10T00:25:30.183Z,65.13
2018-08-10T00:27:35.152Z,66.12
2018-08-10T00:29:40.047Z,68.05
2018-08-10T00:31:45.291Z,68.48
2018-08-10T00:33:50.163Z,69.58
2018-08-10T00:35:55.087Z,70.00
2018-08-10T00:38:00.180Z,69.68
2018-08-10T00:40:06.549Z,68.83
2018-08-10T00:42:11.480Z,69.99
2018-08-10T00:44:16.482Z,69.14
2018-08-10T00:46:21.531Z,69.40
2018-08-10T00:48:26.428Z,69.73
2018-08-10T00:50:31.407Z,69.58
2018-08-10T00:52:36.434Z,68.82
2018-08-10T00:54:41.363Z,68.09
2018-08-10T00:56:46.295Z,69.06
2018-08-10T00:58:51.234Z,69.03
2018-08-10T01:00:56.277Z,69.50
2018-08-10T01:03:01.064Z,69.60
2018-08-10T01:05:07.656Z,70.51
2018-08-10T01:07:12.511Z,70.39
2018-08-10T01:09:17.385Z,70.26
2018-08-10T01:11:22.301Z,69.25
2018-08-10T01:13:27.353Z,69.46
2018-08-10T01:15:32.109Z,67.85
2018-08-10T01:17:37.183Z,68.88
2018-08-10T01:19:42.306Z,68.57
2018-08-10T01:21:47.360Z,69.33
2018-08-10T01:23:52.417Z,69.00
2018-08-10T01:25:57.351Z,69.17
2018-08-10T01:28:03.452Z,68.86
2018-08-10T01:30:08.447Z,69.34
2018-08-10T01:32:13.401Z,69.26
2018-08-10T01:34:18.325Z,69.43
2018-08-10T01:36:23.338Z,69.87
2018-08-10T01:38:28.297Z,70.55
2018-08-10T01:40:33.102Z,70.54
2018-08-10T01:42:38.095Z,69.93
2018-08-10T01:44:43.000Z,70.19
2018-08-10T01:46:47.864Z,70.34
2018-08-10T01:48:52.636Z,70.58
2018-08-10T01:50:57.406Z,70.57
2018-08-10T01:53:02.212Z,70.66
2018-08-10T01:55:07.321Z,70.98
2018-08-10T01:57:12.325Z,71.17
2018-08-10T01:59:17.122Z,68.89
2018-08-10T02:01:22.052Z,68.97
2018-08-10T02:03:26.805Z,69.83
2018-08-10T02:05:31.622Z,69.23
2018-08-10T02:07:38.162Z,70.32
2018-08-10T02:09:43.135Z,70.06
2018-08-10T02:11:48.058Z,69.34
2018-08-10T02:13:52.851Z,69.92
2018-08-10T02:15:58.028Z,70.52
2018-08-10T02:18:02.890Z,70.56
2018-08-10T02:20:10.522Z,70.66
2018-08-10T02:22:15.443Z,69.21
2018-08-10T02:24:20.360Z,70.18
2018-08-10T02:26:25.600Z,70.28
2018-08-10T02:28:30.523Z,69.50
2018-08-10T02:30:35.599Z,70.14
2018-08-10T02:32:41.198Z,70.75
2018-08-10T02:34:46.129Z,71.48
2018-08-10T02:36:51.584Z,70.81
2018-08-10T02:38:56.474Z,71.29
2018-08-10T02:41:01.380Z,70.69
2018-08-10T02:43:06.215Z,72.20
2018-08-10T02:45:11.263Z,71.77
2018-08-10T02:47:20.241Z,71.29
2018-08-10T02:49:25.622Z,72.04
2018-08-10T02:51:30.490Z,71.67
2018-08-10T02:53:35.393Z,72.13
2018-08-10T02:55:40.300Z,71.87
2018-08-10T02:57:45.108Z,71.54
2018-08-10T02:59:50.071Z,72.24
2018-08-10T03:01:55.305Z,72.41
2018-08-10T03:04:00.216Z,72.34
2018-08-10T03:06:05.823Z,73.08
2018-08-10T03:08:10.858Z,72.47
2018-08-10T03:10:16.161Z,72.49
2018-08-10T03:12:21.027Z,73.64
2018-08-10T03:14:25.934Z,73.54
2018-08-10T03:16:30.861Z,72.93
2018-08-10T03:18:36.186Z,72.29
2018-08-10T03:20:41.905Z,72.75
2018-08-10T03:22:47.894Z,73.06
2018-08-10T03:24:52.916Z,73.17
2018-08-10T03:26:57.883Z,73.68
2018-08-10T03:29:02.852Z,73.69
2018-08-10T03:31:07.854Z,72.45
2018-08-10T03:33:12.814Z,73.46
2018-08-10T03:35:17.888Z,74.29
2018-08-10T03:37:22.685Z,74.31
2018-08-10T03:39:27.407Z,73.54
2018-08-10T03:41:32.481Z,73.76
2018-08-10T03:43:38.360Z,74.74
2018-08-10T03:45:43.367Z,74.28
2018-08-10T03:47:48.642Z,74.10
2018-08-10T03:49:53.558Z,74.57
2018-08-10T03:51:58.466Z,75.00
2018-08-10T03:54:03.425Z,75.11
2018-08-10T03:56:08.391Z,74.49
2018-08-10T03:58:13.275Z,74.47
2018-08-10T04:00:18.269Z,75.60
2018-08-10T04:02:23.384Z,75.79
2018-08-10T04:04:28.304Z,75.35
2018-08-10T04:06:33.264Z,76.08
2018-08-10T04:08:38.123Z,76.12
2018-08-10T04:10:42.969Z,75.23
2018-08-10T04:12:47.721Z,75.70
2018-08-10T04:14:52.513Z,75.61
2018-08-10T04:16:57.396Z,75.98
2018-08-10T04:19:02.408Z,74.99
2018-08-10T04:21:07.394Z,75.43
2018-08-10T04:23:12.478Z,75.38
2018-08-10T04:25:17.343Z,75.07
2018-08-10T04:27:22.413Z,74.77
2018-08-10T04:29:27.586Z,75.25
2018-08-10T04:31:32.492Z,75.74
2018-08-10T04:33:37.400Z,75.54
2018-08-10T04:35:42.341Z,75.75
2018-08-10T04:37:47.395Z,75.14
2018-08-10T04:39:52.551Z,74.95
2018-08-10T04:41:57.666Z,75.84
2018-08-10T04:44:02.713Z,74.56
2018-08-10T04:46:08.044Z,74.75
2018-08-10T04:48:13.220Z,73.48
2018-08-10T04:50:18.968Z,74.25
2018-08-10T04:52:23.765Z,74.77
2018-08-10T04:54:28.595Z,74.46
2018-08-10T04:56:33.484Z,74.58
2018-08-10T04:58:38.389Z,74.51
2018-08-10T05:00:43.264Z,74.18
2018-08-10T05:02:48.309Z,73.68
2018-08-10T05:04:53.484Z,73.31
2018-08-10T05:06:58.415Z,73.57
2018-08-10T05:09:03.467Z,74.05
2018-08-10T05:11:08.448Z,73.46
2018-08-10T05:13:13.465Z,73.47
2018-08-10T05:15:18.561Z,73.97
2018-08-10T05:17:23.615Z,73.05
2018-08-10T05:19:28.730Z,73.23
2018-08-10T05:21:33.585Z,73.12
2018-08-10T05:23:38.482Z,73.25
2018-08-10T05:25:43.548Z,73.44
2018-08-10T05:27:48.450Z,73.33
2018-08-10T05:29:53.686Z,73.01
2018-08-10T05:31:59.001Z,72.20
2018-08-10T05:34:04.030Z,72.54
2018-08-10T05:36:09.341Z,71.94
2018-08-10T05:38:14.383Z,72.35
2018-08-10T05:40:19.560Z,71.85
2018-08-10T05:42:24.849Z,71.08
2018-08-10T05:44:29.818Z,71.08
2018-08-10T05:46:34.728Z,72.19
2018-08-10T05:48:41.200Z,71.82
2018-08-10T05:50:46.244Z,71.35
2018-08-10T05:52:51.458Z,71.38
2018-08-10T05:54:57.167Z,71.28
2018-08-10T05:57:03.141Z,70.61
2018-08-10T05:59:08.146Z,69.99
2018-08-10T06:01:13.747Z,69.75
2018-08-10T06:03:18.863Z,70.59
2018-08-10T06:05:23.702Z,69.93
2018-08-10T06:07:28.574Z,70.29
2018-08-10T06:09:33.409Z,70.13
2018-08-10T06:11:38.224Z,69.21
2018-08-10T06:13:43.060Z,69.46
2018-08-10T06:15:48.102Z,69.41
2018-08-10T06:17:52.913Z,69.10
2018-08-10T06:19:57.856Z,69.84
2018-08-10T06:22:02.740Z,68.78
2018-08-10T06:24:07.677Z,69.15
2018-08-10T06:26:12.523Z,69.56
2018-08-10T06:28:17.467Z,69.60
2018-08-10T06:30:22.803Z,69.76
2018-08-10T06:32:27.832Z,69.11
2018-08-10T06:34:32.796Z,69.65
2018-08-10T06:36:37.749Z,69.37
2018-08-10T06:38:42.746Z,69.26
2018-08-10T06:40:47.775Z,68.99
2018-08-10T06:42:52.526Z,68.68
2018-08-10T06:44:57.623Z,67.36
2018-08-10T06:47:02.401Z,67.59
2018-08-10T06:49:07.222Z,66.75
2018-08-10T06:51:12.446Z,67.06
2018-08-10T06:53:17.354Z,67.15
2018-08-10T06:55:22.186Z,66.43
2018-08-10T06:57:27.314Z,65.17
2018-08-10T06:59:32.313Z,65.56
2018-08-10T07:01:37.311Z,64.96
2018-08-10T07:03:42.163Z,65.36
2018-08-10T07:05:47.233Z,65.99
2018-08-10T07:07:52.437Z,64.78
2018-08-10T07:09:57.418Z,64.96
2018-08-10T07:12:02.323Z,65.03
2018-08-10T07:14:07.322Z,64.46
2018-08-10T07:16:12.505Z,63.83
2018-08-10T07:18:17.585Z,64.81
2018-08-10T07:20:22.743Z,64.27
2018-08-10T07:22:27.635Z,63.21
2018-08-10T07:24:32.436Z,62.25
2018-08-10T07:26:37.420Z,62.52
2018-08-10T07:28:42.619Z,62.46
2018-08-10T07:30:47.580Z,63.09
2018-08-10T07:32:52.697Z,63.52
2018-08-10T07:34:57.821Z,64.11
2018-08-10T07:37:02.900Z,62.33
2018-08-10T07:39:11.374Z,60.88
2018-08-10T07:41:16.380Z,60.86
2018-08-10T07:43:21.637Z,60.59
2018-08-10T07:45:26.685Z,60.66
2018-08-10T07:47:31.803Z,61.47
2018-08-10T07:49:36.699Z,59.61
2018-08-10T07:51:41.675Z,60.94
2018-08-10T07:53:47.154Z,61.32
2018-08-10T07:55:52.015Z,61.07
2018-08-10T07:57:57.279Z,60.14
2018-08-10T08:00:02.113Z,58.16
2018-08-10T08:02:07.200Z,58.59
2018-08-10T08:04:12.299Z,58.24
2018-08-10T08:06:17.402Z,57.72
2018-08-10T08:08:22.623Z,57.73
2018-08-10T08:10:27.787Z,56.94
2018-08-10T08:12:32.911Z,56.13
2018-08-10T08:14:38.567Z,57.17
2018-08-10T08:16:43.568Z,56.83
2018-08-10T08:18:48.602Z,55.84
2018-08-10T08:21:07.624Z,55.01
2018-08-10T08:23:12.672Z,54.79
2018-08-10T08:25:17.599Z,54.95
2018-08-10T08:27:22.598Z,54.65
2018-08-10T08:29:27.577Z,53.69
2018-08-10T08:31:32.771Z,54.29
2018-08-10T08:34:04.998Z,53.17
2018-08-10T08:36:10.104Z,52.32
2018-08-10T08:38:30.489Z,52.19
2018-08-10T08:40:35.611Z,52.50
2018-08-10T08:42:41.146Z,52.06
2018-08-10T08:46:53.679Z,52.45
2018-08-10T08:49:02.394Z,51.36
2018-08-10T08:51:15.448Z,50.67
2018-08-10T08:53:25.854Z,51.23
2018-08-10T08:55:33.999Z,51.75
2018-08-10T08:57:39.067Z,51.68
2018-08-10T08:59:44.156Z,50.79
2018-08-10T09:01:49.158Z,50.02
2018-08-10T09:05:09.077Z,50.47
2018-08-10T09:07:14.083Z,49.78
2018-08-10T09:09:35.715Z,49.00
2018-08-10T09:11:40.714Z,49.02
2018-08-10T09:14:58.287Z,48.22
2018-08-10T09:17:03.289Z,48.77
2018-08-10T09:19:08.329Z,47.80
2018-08-10T09:21:13.272Z,48.78
2018-08-10T09:23:18.360Z,48.90
2018-08-10T09:25:23.449Z,48.84
2018-08-10T09:27:28.655Z,48.05
2018-08-10T09:29:34.628Z,48.27
2018-08-10T09:31:39.830Z,47.46
2018-08-10T09:33:44.994Z,46.23
2018-08-10T09:35:50.243Z,46.66
2018-08-10T09:37:55.262Z,45.55
2018-08-10T09:40:00.454Z,45.29
2018-08-10T09:42:05.589Z,45.77
2018-08-10T09:44:10.741Z,44.42
2018-08-10T09:46:15.729Z,44.12
2018-08-10T09:48:20.740Z,44.65
2018-08-10T09:50:25.607Z,43.81
2018-08-10T09:52:30.624Z,43.45
2018-08-10T09:54:46.668Z,44.06
2018-08-10T09:56:52.195Z,44.70
2018-08-10T09:58:57.522Z,43.48
2018-08-10T10:01:08.510Z,42.83
2018-08-10T10:03:19.080Z,42.62
2018-08-10T10:05:26.181Z,42.47
2018-08-10T10:07:31.260Z,42.24
2018-08-10T10:09:36.747Z,42.75
2018-08-10T10:11:41.884Z,41.53
2018-08-10T10:13:47.122Z,41.67
2018-08-10T10:15:52.367Z,40.37
2018-08-10T10:17:57.661Z,40.77
2018-08-10T10:20:03.591Z,40.74
2018-08-10T10:22:08.896Z,39.41
2018-08-10T10:24:14.108Z,39.84
2018-08-10T10:26:19.394Z,38.15
2018-08-10T10:28:24.576Z,38.53
2018-08-10T10:30:29.750Z,38.77
2018-08-10T10:32:35.123Z,39.48
2018-08-10T10:34:40.476Z,39.54
2018-08-10T10:36:45.490Z,38.77
2018-08-10T10:38:50.503Z,37.96
2018-08-10T10:40:55.465Z,37.13
2018-08-10T10:43:00.503Z,36.98
2018-08-10T10:45:07.606Z,37.69
2018-08-10T10:47:12.772Z,37.71
2018-08-10T10:49:17.591Z,37.33
2018-08-10T10:51:22.793Z,35.72
2018-08-10T10:53:27.797Z,37.24
2018-08-10T10:55:32.838Z,36.70
2018-08-10T10:57:37.972Z,36.26
2018-08-10T10:59:42.962Z,36.09
2018-08-10T11:01:48.043Z,35.18
2018-08-10T11:03:53.043Z,35.53
2018-08-10T11:05:57.848Z,35.86
2018-08-10T11:08:02.928Z,34.69
2018-08-10T11:10:10.178Z,35.56
2018-08-10T11:12:15.496Z,35.28
2018-08-10T11:14:20.496Z,35.33
2018-08-10T11:16:25.555Z,35.13
2018-08-10T11:18:30.487Z,36.65
2018-08-10T11:20:35.981Z,36.30
2018-08-10T11:22:41.786Z,37.08
2018-08-10T11:24:46.703Z,37.32
2018-08-10T11:26:51.864Z,36.88
2018-08-10T11:28:56.796Z,36.62
2018-08-10T11:31:01.862Z,36.30
2018-08-10T11:33:07.058Z,35.49
2018-08-10T11:35:12.416Z,36.45
2018-08-10T11:37:17.391Z,36.94
2018-08-10T11:39:22.585Z,35.29
2018-08-10T11:41:30.168Z,36.43
2018-08-10T11:43:35.092Z,36.08
2018-08-10T11:45:40.245Z,35.24
2018-08-10T11:47:45.589Z,32.32
2018-08-10T11:49:51.826Z,33.75
2018-08-10T11:51:57.189Z,33.37
2018-08-10T11:54:02.366Z,33.58
2018-08-10T11:56:07.278Z,32.99
2018-08-10T11:58:12.153Z,33.51
2018-08-10T12:00:17.046Z,33.64
2018-08-10T12:02:22.111Z,34.32
2018-08-10T12:04:27.365Z,33.63
2018-08-10T12:06:32.291Z,34.97
2018-08-10T12:08:37.567Z,33.40
2018-08-10T12:10:42.635Z,33.12
2018-08-10T12:12:47.935Z,33.23
2018-08-10T12:14:53.387Z,31.99
2018-08-10T12:16:58.432Z,30.53
2018-08-10T12:19:03.801Z,31.42
2018-08-10T12:21:21.183Z,31.57
2018-08-10T12:23:26.089Z,32.36
2018-08-10T12:25:31.021Z,32.70
2018-08-10T12:27:35.924Z,32.61
2018-08-10T12:29:40.861Z,32.87
2018-08-10T12:31:45.980Z,33.33
2018-08-10T12:33:51.055Z,32.58
2018-08-10T12:35:56.117Z,32.06
2018-08-10T12:38:01.110Z,31.34
2018-08-10T12:40:06.351Z,29.77
2018-08-10T12:42:11.270Z,29.47
2018-08-10T12:44:16.258Z,29.27
2018-08-10T12:46:21.112Z,29.28
2018-08-10T12:48:25.998Z,29.78
2018-08-10T12:50:30.875Z,31.27
2018-08-10T12:52:35.744Z,31.65
2018-08-10T12:54:40.841Z,30.96
2018-08-10T12:56:45.936Z,31.37
2018-08-10T12:58:51.031Z,32.06
2018-08-10T13:00:56.095Z,31.97
2018-08-10T13:03:01.675Z,31.71
2018-08-10T13:05:07.329Z,31.56
2018-08-10T13:07:12.540Z,32.35
2018-08-10T13:09:17.445Z,30.82
2018-08-10T13:11:22.345Z,30.80
2018-08-10T13:13:27.575Z,31.62
2018-08-10T13:15:32.615Z,31.74
2018-08-10T13:17:37.877Z,31.41
2018-08-10T13:19:42.943Z,30.45
2018-08-10T13:21:47.997Z,28.98
2018-08-10T13:23:53.126Z,29.63
2018-08-10T13:25:58.214Z,29.31
2018-08-10T13:28:03.104Z,29.31
2018-08-10T13:30:10.180Z,30.03
2018-08-10T13:32:15.240Z,30.02
2018-08-10T13:34:20.542Z,30.12
2018-08-10T13:36:25.498Z,29.64
2018-08-10T13:38:30.549Z,29.78
2018-08-10T13:40:35.798Z,29.91
2018-08-10T13:42:40.869Z,29.85
2018-08-10T13:44:46.463Z,30.70
2018-08-10T13:46:51.408Z,30.52
2018-08-10T13:48:56.512Z,31.10
2018-08-10T13:51:01.772Z,30.55
2018-08-10T13:53:07.200Z,30.54
2018-08-10T13:55:16.258Z,30.42
2018-08-10T13:57:21.248Z,31.14
2018-08-10T13:59:26.212Z,31.28
2018-08-10T14:01:32.038Z,30.17
2018-08-10T14:03:37.172Z,29.58
2018-08-10T14:05:46.692Z,30.74
2018-08-10T14:07:52.914Z,28.35
2018-08-10T14:09:59.989Z,29.35
2018-08-10T14:12:05.168Z,29.25
2018-08-10T14:14:10.350Z,29.69
2018-08-10T14:16:16.990Z,29.71
2018-08-10T14:18:22.163Z,29.60
2018-08-10T14:20:27.415Z,28.65
2018-08-10T14:22:32.983Z,28.61
2018-08-10T14:24:38.287Z,28.94
2018-08-10T14:26:44.019Z,29.35
2018-08-10T14:28:48.866Z,29.46
2018-08-10T14:30:53.944Z,30.41
2018-08-10T14:32:59.066Z,30.82
2018-08-10T14:35:04.003Z,30.33
2018-08-10T14:37:09.085Z,31.33
2018-08-10T14:39:14.497Z,30.89
2018-08-10T14:41:19.468Z,31.08
2018-08-10T14:43:24.369Z,31.96
2018-08-10T14:45:29.300Z,31.16
2018-08-10T14:47:34.432Z,31.67
2018-08-10T14:49:39.397Z,31.03
2018-08-10T14:51:44.277Z,30.93
2018-08-10T14:53:49.344Z,31.71
2018-08-10T14:55:54.522Z,31.10
2018-08-10T14:58:00.128Z,31.67
2018-08-10T15:00:08.759Z,32.44
2018-08-10T15:02:23.385Z,31.02
2018-08-10T15:04:39.082Z,30.52
2018-08-10T15:06:44.787Z,30.56
2018-08-10T15:08:54.059Z,31.15
2018-08-10T15:10:59.810Z,30.78
2018-08-10T15:13:05.398Z,30.76
2018-08-10T15:15:19.315Z,30.62
2018-08-10T15:17:36.144Z,30.40
2018-08-10T15:19:41.080Z,29.54
2018-08-10T15:21:46.454Z,29.86
2018-08-10T15:23:51.715Z,29.75
2018-08-10T15:25:57.325Z,29.92
2018-08-10T15:28:03.248Z,28.86
2018-08-10T15:30:11.757Z,29.54
2018-08-10T15:32:16.852Z,29.17
2018-08-10T15:34:22.171Z,29.23
2018-08-10T15:36:28.698Z,29.56
2018-08-10T15:38:33.548Z,28.35
2018-08-10T15:40:40.003Z,28.17
2018-08-10T15:42:46.047Z,28.73
2018-08-10T15:44:51.113Z,28.31
2018-08-10T15:46:57.037Z,27.37
2018-08-10T15:49:02.911Z,26.80
2018-08-10T15:51:08.414Z,26.83
2018-08-10T15:53:13.302Z,26.20
2018-08-10T15:55:18.281Z,26.53
2018-08-10T15:57:23.880Z,26.84
2018-08-10T15:59:28.758Z,27.02
2018-08-10T16:01:36.545Z,27.08
2018-08-10T16:03:46.094Z,26.55
2018-08-10T16:05:51.138Z,26.63
2018-08-10T16:07:56.326Z,26.52
2018-08-10T16:10:01.385Z,25.94
2018-08-10T16:12:14.666Z,25.40
2018-08-10T16:14:21.876Z,24.10
2018-08-10T16:16:28.969Z,23.44
2018-08-10T16:21:20.711Z,23.60
2018-08-10T16:23:31.049Z,23.26
2018-08-10T16:25:39.894Z,24.04
2018-08-10T16:27:49.205Z,23.65
2018-08-10T16:29:54.855Z,23.93
2018-08-10T16:32:01.905Z,25.51
2018-08-10T16:34:07.515Z,25.09
2018-08-10T16:38:26.082Z,24.02
2018-08-10T16:40:32.906Z,24.03
2018-08-10T16:42:39.466Z,24.45
2018-08-10T16:44:45.301Z,24.85
2018-08-10T16:46:55.454Z,24.66
2018-08-10T16:49:06.735Z,24.91
2018-08-10T16:51:14.074Z,24.91
2018-08-10T16:53:19.635Z,24.74
2018-08-10T16:55:24.896Z,25.76
2018-08-10T16:57:30.080Z,26.25
2018-08-10T16:59:35.056Z,27.00
2018-08-10T17:01:40.033Z,25.66
2018-08-10T17:03:45.279Z,25.84
2018-08-10T17:05:50.758Z,26.38
2018-08-10T17:07:55.998Z,26.58
2018-08-10T17:10:01.829Z,26.02
2018-08-10T17:12:13.110Z,25.85
2018-08-10T17:14:18.421Z,26.71
2018-08-10T17:16:23.763Z,26.80
2018-08-10T17:18:28.695Z,27.07
2018-08-10T17:20:37.273Z,27.57
2018-08-10T17:22:43.715Z,27.99
2018-08-10T17:24:54.775Z,27.91
2018-08-10T17:26:59.807Z,28.54
2018-08-10T17:29:05.430Z,29.55
2018-08-10T17:31:13.387Z,29.83
2018-08-10T17:33:21.119Z,28.78
2018-08-10T17:35:30.393Z,28.81
2018-08-10T17:37:37.382Z,29.44
2018-08-10T17:39:42.968Z,29.33
2018-08-10T17:41:49.125Z,30.90
2018-08-10T17:43:54.530Z,30.22
2018-08-10T17:46:03.332Z,30.30
2018-08-10T17:48:10.977Z,30.63
2018-08-10T17:50:24.031Z,30.72
2018-08-10T17:52:31.093Z,30.73
2018-08-10T17:54:43.999Z,29.92
2018-08-10T17:57:00.077Z,30.67
2018-08-10T17:59:05.541Z,31.00
2018-08-10T18:01:11.006Z,31.14
2018-08-10T18:03:22.218Z,31.57
2018-08-10T18:05:37.220Z,31.94
2018-08-10T18:07:49.668Z,32.27
2018-08-10T18:09:59.900Z,31.42
2018-08-10T18:12:07.481Z,31.79
2018-08-10T18:14:13.175Z,32.99
2018-08-10T18:16:23.086Z,33.11
2018-08-10T18:18:40.704Z,33.07
2018-08-10T18:20:50.646Z,32.63
2018-08-10T18:23:02.194Z,33.41
2018-08-10T18:25:13.216Z,33.30
2018-08-10T18:27:19.504Z,33.15
2018-08-10T18:29:31.597Z,33.19
2018-08-10T18:31:38.868Z,33.40
2018-08-10T18:33:47.904Z,32.93
2018-08-10T18:35:57.374Z,34.12
2018-08-10T18:38:05.446Z,33.44
2018-08-10T18:40:14.101Z,34.11
2018-08-10T18:42:20.875Z,34.83
2018-08-10T18:44:28.232Z,34.63
2018-08-10T18:46:36.234Z,34.77
2018-08-10T18:48:43.911Z,34.83
2018-08-10T18:50:56.132Z,34.98
2018-08-10T18:53:03.456Z,35.88
2018-08-10T18:55:19.091Z,36.10
2018-08-10T18:57:29.199Z,36.57
2018-08-10T18:59:40.091Z,36.31
2018-08-10T19:01:46.965Z,36.04
2018-08-10T19:03:54.054Z,36.43
2018-08-10T19:06:04.815Z,36.85
2018-08-10T19:08:13.612Z,36.66
2018-08-10T19:10:26.213Z,36.50
2018-08-10T19:12:35.480Z,37.13
2018-08-10T19:14:50.336Z,37.19
2018-08-10T19:16:57.204Z,36.65
2018-08-10T19:19:18.216Z,37.15
2018-08-10T19:21:35.280Z,37.02
2018-08-10T19:23:47.431Z,37.15
2018-08-10T19:25:57.729Z,36.98
2018-08-10T19:28:13.509Z,37.35
2018-08-10T19:30:30.659Z,37.00
2018-08-10T19:32:45.307Z,37.87
2018-08-10T19:35:00.434Z,38.12
2018-08-10T19:37:10.350Z,37.86
2018-08-10T19:39:24.886Z,37.84
2018-08-10T19:41:31.653Z,37.93
2018-08-10T19:43:40.431Z,39.27
2018-08-10T19:45:46.798Z,38.53
2018-08-10T19:47:52.585Z,38.32
2018-08-10T19:49:59.515Z,39.31
2018-08-10T19:52:04.885Z,38.68
2018-08-10T19:54:10.307Z,39.28
2018-08-10T19:56:16.091Z,39.37
2018-08-10T19:58:21.422Z,38.94
2018-08-10T20:00:27.120Z,39.09
2018-08-10T20:02:40.363Z,38.78
2018-08-10T20:04:45.874Z,38.22
2018-08-10T20:06:51.464Z,39.16
2018-08-10T20:08:57.319Z,39.31
2018-08-10T20:11:02.383Z,39.70
2018-08-10T20:13:07.330Z,39.73
2018-08-10T20:15:19.946Z,39.78
2018-08-10T20:17:26.198Z,40.01
2018-08-10T20:19:32.170Z,40.03
2018-08-10T20:21:39.435Z,40.11
2018-08-10T20:23:46.606Z,39.87
2018-08-10T20:25:52.415Z,40.24
2018-08-10T20:27:58.121Z,39.98
2018-08-10T20:30:03.834Z,39.53
2018-08-10T20:32:09.483Z,39.59
2018-08-10T20:34:15.141Z,39.45
2018-08-10T20:36:20.950Z,39.76
2018-08-10T20:38:26.880Z,39.65
2018-08-10T20:40:34.651Z,39.37
2018-08-10T20:42:43.624Z,39.30
2018-08-10T20:44:51.749Z,40.32
2018-08-10T20:47:01.637Z,40.12
2018-08-10T20:49:10.777Z,39.46
2018-08-10T20:51:19.466Z,39.50
2018-08-10T20:53:24.749Z,40.38
2018-08-10T20:55:30.943Z,38.75
2018-08-10T20:57:36.393Z,39.49
2018-08-10T20:59:41.502Z,40.34
2018-08-10T21:01:46.711Z,39.46
2018-08-10T21:03:54.446Z,39.83
2018-08-10T21:06:00.829Z,40.20
2018-08-10T21:08:06.333Z,40.50
2018-08-10T21:10:14.943Z,40.30
2018-08-10T21:12:20.079Z,40.54
2018-08-10T21:14:25.394Z,40.05
2018-08-10T21:16:30.604Z,40.39
2018-08-10T21:18:36.432Z,41.17
2018-08-10T21:20:41.661Z,41.31
2018-08-10T21:22:47.337Z,40.44
2018-08-10T21:24:52.569Z,41.37
2018-08-10T21:26:58.165Z,41.28
2018-08-10T21:29:03.465Z,41.43
2018-08-10T21:31:08.542Z,41.43
2018-08-10T21:33:13.983Z,41.40
2018-08-10T21:35:19.116Z,41.03
2018-08-10T21:37:24.368Z,41.26
2018-08-10T21:39:29.688Z,41.63
2018-08-10T21:41:34.842Z,41.73
2018-08-10T21:43:40.069Z,41.97
2018-08-10T21:45:45.295Z,41.79
2018-08-10T21:47:50.426Z,41.88
2018-08-10T21:49:55.395Z,41.64
2018-08-10T21:52:00.705Z,41.85
2018-08-10T21:54:05.724Z,42.21
2018-08-10T21:56:10.933Z,42.45
2018-08-10T21:58:16.099Z,42.08
2018-08-10T22:00:32.344Z,41.86
2018-08-10T22:02:37.431Z,42.28
2018-08-10T22:04:42.651Z,42.19
2018-08-10T22:06:47.795Z,42.34
2018-08-10T22:08:52.998Z,42.78
2018-08-10T22:10:58.026Z,42.38
2018-08-10T22:13:03.027Z,42.81
2018-08-10T22:15:13.396Z,43.44
2018-08-10T22:17:23.361Z,43.42
2018-08-10T22:19:28.344Z,43.57
2018-08-10T22:21:33.364Z,43.61
2018-08-10T22:23:38.266Z,43.84
2018-08-10T22:25:43.359Z,44.08
2018-08-10T22:27:48.386Z,43.70
2018-08-10T22:29:53.428Z,43.83
2018-08-10T22:31:58.484Z,44.16
2018-08-10T22:34:04.759Z,43.80
2018-08-10T22:36:09.805Z,44.83
2018-08-10T22:38:14.972Z,44.17
2018-08-10T22:40:20.621Z,44.27
2018-08-10T22:42:25.851Z,44.48
2018-08-10T22:44:31.412Z,44.50
2018-08-10T22:46:36.793Z,44.94
2018-08-10T22:48:42.651Z,44.86
2018-08-10T22:50:47.850Z,44.75
2018-08-10T22:52:52.950Z,44.13
2018-08-10T22:54:58.459Z,44.29
2018-08-10T22:57:03.432Z,44.13
2018-08-10T22:59:08.580Z,44.42
2018-08-10T23:01:13.736Z,43.70
2018-08-10T23:03:18.886Z,43.92
2018-08-10T23:05:24.139Z,44.62
2018-08-10T23:07:29.321Z,44.67
2018-08-10T23:09:34.330Z,44.35
2018-08-10T23:11:39.521Z,44.48
2018-08-10T23:13:44.713Z,44.05
2018-08-10T23:15:49.648Z,43.63
2018-08-10T23:17:54.768Z,43.89
2018-08-10T23:19:59.813Z,44.63
2018-08-10T23:22:04.942Z,44.59
2018-08-10T23:24:09.986Z,44.59
2018-08-10T23:26:14.825Z,44.06
2018-08-10T23:28:19.747Z,43.86
2018-08-10T23:30:24.701Z,43.60
2018-08-10T23:32:29.711Z,43.61
2018-08-10T23:34:34.860Z,44.23
2018-08-10T23:36:39.798Z,44.05
2018-08-10T23:38:44.717Z,44.15
2018-08-10T23:40:49.721Z,43.50
2018-08-10T23:42:54.748Z,43.32
2018-08-10T23:44:59.802Z,42.86
2018-08-10T23:47:05.296Z,43.19
2018-08-10T23:49:10.417Z,43.08
2018-08-10T23:51:15.389Z,43.14
2018-08-10T23:53:20.290Z,43.25
2018-08-10T23:55:25.354Z,43.44
2018-08-10T23:57:30.564Z,43.06
2018-08-10T23:59:35.503Z,43.33
